sensor_id;sensor_type;location;lat;lon;timestamp;temperature;humidity
4308;DHT22;2167;53.448;9.984;2022-12-07T00:01:12;4.00;36.40
4308;DHT22;2167;53.448;9.984;2022-12-07T00:03:38;4.00;36.60
4308;DHT22;2167;53.448;9.984;2022-12-07T00:06:06;4.10;36.80
4308;DHT22;2167;53.448;9.984;2022-12-07T00:08:33;4.00;36.70
4308;DHT22;2167;53.448;9.984;2022-12-07T00:11:08;4.00;36.90
4308;DHT22;2167;53.448;9.984;2022-12-07T00:13:35;4.00;37.00
4308;DHT22;2167;53.448;9.984;2022-12-07T00:18:32;4.00;36.90
4308;DHT22;2167;53.448;9.984;2022-12-07T00:21:26;4.00;36.90
4308;DHT22;2167;53.448;9.984;2022-12-07T00:23:52;4.00;36.90
4308;DHT22;2167;53.448;9.984;2022-12-07T00:26:26;4.00;37.00
4308;DHT22;2167;53.448;9.984;2022-12-07T00:28:54;3.90;37.00
4308;DHT22;2167;53.448;9.984;2022-12-07T00:31:22;3.90;37.00
4308;DHT22;2167;53.448;9.984;2022-12-07T00:33:49;4.00;37.10
4308;DHT22;2167;53.448;9.984;2022-12-07T00:36:18;3.90;37.00
4308;DHT22;2167;53.448;9.984;2022-12-07T00:38:44;3.90;37.20
4308;DHT22;2167;53.448;9.984;2022-12-07T00:41:28;3.90;37.10
4308;DHT22;2167;53.448;9.984;2022-12-07T00:43:55;3.90;37.20
4308;DHT22;2167;53.448;9.984;2022-12-07T00:46:21;3.90;37.20
4308;DHT22;2167;53.448;9.984;2022-12-07T00:48:48;3.90;37.40
4308;DHT22;2167;53.448;9.984;2022-12-07T00:51:15;3.90;37.30
4308;DHT22;2167;53.448;9.984;2022-12-07T00:53:41;3.90;37.30
4308;DHT22;2167;53.448;9.984;2022-12-07T00:56:14;3.90;37.30
4308;DHT22;2167;53.448;9.984;2022-12-07T00:58:40;3.90;37.30
4308;DHT22;2167;53.448;9.984;2022-12-07T01:01:07;3.90;37.10
4308;DHT22;2167;53.448;9.984;2022-12-07T01:03:33;3.90;37.20
4308;DHT22;2167;53.448;9.984;2022-12-07T01:05:59;3.90;37.20
4308;DHT22;2167;53.448;9.984;2022-12-07T01:08:26;3.90;37.20
4308;DHT22;2167;53.448;9.984;2022-12-07T01:11:06;3.90;37.20
4308;DHT22;2167;53.448;9.984;2022-12-07T01:13:33;4.00;37.40
4308;DHT22;2167;53.448;9.984;2022-12-07T01:16:02;4.00;37.50
4308;DHT22;2167;53.448;9.984;2022-12-07T01:18:29;4.10;37.70
4308;DHT22;2167;53.448;9.984;2022-12-07T01:21:03;4.10;37.60
4308;DHT22;2167;53.448;9.984;2022-12-07T01:23:30;4.00;37.50
4308;DHT22;2167;53.448;9.984;2022-12-07T01:26:00;4.00;37.50
4308;DHT22;2167;53.448;9.984;2022-12-07T01:28:28;4.10;37.70
4308;DHT22;2167;53.448;9.984;2022-12-07T01:33:22;4.20;37.70
4308;DHT22;2167;53.448;9.984;2022-12-07T01:35:47;4.10;37.60
4308;DHT22;2167;53.448;9.984;2022-12-07T01:38:13;4.20;37.70
4308;DHT22;2167;53.448;9.984;2022-12-07T01:40:38;4.20;37.50
4308;DHT22;2167;53.448;9.984;2022-12-07T01:43:16;4.30;37.60
4308;DHT22;2167;53.448;9.984;2022-12-07T01:45:43;4.30;37.60
4308;DHT22;2167;53.448;9.984;2022-12-07T01:48:11;4.40;37.10
4308;DHT22;2167;53.448;9.984;2022-12-07T01:50:39;4.30;36.60
4308;DHT22;2167;53.448;9.984;2022-12-07T01:53:08;4.30;36.20
4308;DHT22;2167;53.448;9.984;2022-12-07T01:55:37;4.30;35.90
4308;DHT22;2167;53.448;9.984;2022-12-07T01:58:04;4.30;35.50
4308;DHT22;2167;53.448;9.984;2022-12-07T02:00:29;4.20;35.20
4308;DHT22;2167;53.448;9.984;2022-12-07T02:03:00;4.30;35.30
4308;DHT22;2167;53.448;9.984;2022-12-07T02:05:26;4.30;35.20
4308;DHT22;2167;53.448;9.984;2022-12-07T02:07:55;4.30;34.80
4308;DHT22;2167;53.448;9.984;2022-12-07T02:10:23;4.30;35.30
4308;DHT22;2167;53.448;9.984;2022-12-07T02:12:54;4.30;34.50
4308;DHT22;2167;53.448;9.984;2022-12-07T02:15:22;4.10;34.20
4308;DHT22;2167;53.448;9.984;2022-12-07T02:18:01;4.10;34.30
4308;DHT22;2167;53.448;9.984;2022-12-07T02:20:37;4.10;34.60
4308;DHT22;2167;53.448;9.984;2022-12-07T02:29:17;4.00;34.20
4308;DHT22;2167;53.448;9.984;2022-12-07T02:31:55;4.00;34.30
4308;DHT22;2167;53.448;9.984;2022-12-07T02:37:10;3.90;34.50
4308;DHT22;2167;53.448;9.984;2022-12-07T02:42:42;3.90;34.20
4308;DHT22;2167;53.448;9.984;2022-12-07T02:45:10;3.90;34.00
4308;DHT22;2167;53.448;9.984;2022-12-07T02:47:39;3.90;34.00
4308;DHT22;2167;53.448;9.984;2022-12-07T02:50:06;3.90;33.90
4308;DHT22;2167;53.448;9.984;2022-12-07T02:52:32;3.90;33.70
4308;DHT22;2167;53.448;9.984;2022-12-07T02:54:58;3.90;33.70
4308;DHT22;2167;53.448;9.984;2022-12-07T03:00:21;3.80;33.30
4308;DHT22;2167;53.448;9.984;2022-12-07T03:03:12;3.80;33.70
4308;DHT22;2167;53.448;9.984;2022-12-07T03:08:44;3.90;33.30
4308;DHT22;2167;53.448;9.984;2022-12-07T03:13:59;3.80;33.00
4308;DHT22;2167;53.448;9.984;2022-12-07T03:16:27;3.80;32.90
4308;DHT22;2167;53.448;9.984;2022-12-07T03:21:27;3.80;32.60
4308;DHT22;2167;53.448;9.984;2022-12-07T03:23:59;3.70;32.40
4308;DHT22;2167;53.448;9.984;2022-12-07T03:26:36;3.70;32.60
4308;DHT22;2167;53.448;9.984;2022-12-07T03:29:10;3.70;32.30
4308;DHT22;2167;53.448;9.984;2022-12-07T03:31:43;3.70;32.60
4308;DHT22;2167;53.448;9.984;2022-12-07T03:34:36;3.70;32.60
4308;DHT22;2167;53.448;9.984;2022-12-07T03:37:10;3.70;33.10
4308;DHT22;2167;53.448;9.984;2022-12-07T03:39:47;3.70;32.30
4308;DHT22;2167;53.448;9.984;2022-12-07T03:42:16;3.70;32.10
4308;DHT22;2167;53.448;9.984;2022-12-07T03:44:42;3.70;31.80
4308;DHT22;2167;53.448;9.984;2022-12-07T03:47:31;3.60;31.90
4308;DHT22;2167;53.448;9.984;2022-12-07T03:50:06;3.60;32.00
4308;DHT22;2167;53.448;9.984;2022-12-07T03:52:41;3.60;32.20
4308;DHT22;2167;53.448;9.984;2022-12-07T03:55:30;3.60;31.80
4308;DHT22;2167;53.448;9.984;2022-12-07T03:58:01;3.60;31.70
4308;DHT22;2167;53.448;9.984;2022-12-07T04:00:28;3.60;31.60
4308;DHT22;2167;53.448;9.984;2022-12-07T04:02:55;3.60;31.60
4308;DHT22;2167;53.448;9.984;2022-12-07T04:05:21;3.50;31.40
4308;DHT22;2167;53.448;9.984;2022-12-07T04:07:47;3.50;31.10
4308;DHT22;2167;53.448;9.984;2022-12-07T04:10:12;3.40;31.00
4308;DHT22;2167;53.448;9.984;2022-12-07T04:12:39;3.40;31.00
4308;DHT22;2167;53.448;9.984;2022-12-07T04:15:05;3.50;31.00
4308;DHT22;2167;53.448;9.984;2022-12-07T04:17:31;3.40;30.60
4308;DHT22;2167;53.448;9.984;2022-12-07T04:19:56;3.30;30.70
4308;DHT22;2167;53.448;9.984;2022-12-07T04:22:22;3.30;30.90
4308;DHT22;2167;53.448;9.984;2022-12-07T04:24:48;3.30;30.90
4308;DHT22;2167;53.448;9.984;2022-12-07T04:27:13;3.30;30.90
4308;DHT22;2167;53.448;9.984;2022-12-07T04:29:39;3.30;30.80
4308;DHT22;2167;53.448;9.984;2022-12-07T04:32:04;3.30;30.50
4308;DHT22;2167;53.448;9.984;2022-12-07T04:34:30;3.30;30.30
4308;DHT22;2167;53.448;9.984;2022-12-07T04:36:56;3.30;30.20
4308;DHT22;2167;53.448;9.984;2022-12-07T04:39:24;3.30;30.10
4308;DHT22;2167;53.448;9.984;2022-12-07T04:41:50;3.40;30.00
4308;DHT22;2167;53.448;9.984;2022-12-07T04:44:16;3.30;29.60
4308;DHT22;2167;53.448;9.984;2022-12-07T04:46:42;3.30;29.40
4308;DHT22;2167;53.448;9.984;2022-12-07T04:49:08;3.30;29.20
4308;DHT22;2167;53.448;9.984;2022-12-07T04:51:34;3.30;28.90
4308;DHT22;2167;53.448;9.984;2022-12-07T04:53:59;3.20;29.10
4308;DHT22;2167;53.448;9.984;2022-12-07T04:56:25;3.30;29.60
4308;DHT22;2167;53.448;9.984;2022-12-07T04:58:53;3.30;28.70
4308;DHT22;2167;53.448;9.984;2022-12-07T05:01:19;3.30;28.60
4308;DHT22;2167;53.448;9.984;2022-12-07T05:03:45;3.30;28.60
4308;DHT22;2167;53.448;9.984;2022-12-07T05:06:11;3.30;28.30
4308;DHT22;2167;53.448;9.984;2022-12-07T05:08:37;3.30;28.40
4308;DHT22;2167;53.448;9.984;2022-12-07T05:11:03;3.30;28.50
4308;DHT22;2167;53.448;9.984;2022-12-07T05:13:30;3.30;28.60
4308;DHT22;2167;53.448;9.984;2022-12-07T05:15:55;3.30;28.30
4308;DHT22;2167;53.448;9.984;2022-12-07T05:18:21;3.30;27.90
4308;DHT22;2167;53.448;9.984;2022-12-07T05:20:46;3.20;27.70
4308;DHT22;2167;53.448;9.984;2022-12-07T05:23:12;3.20;27.80
4308;DHT22;2167;53.448;9.984;2022-12-07T05:25:38;3.30;28.30
4308;DHT22;2167;53.448;9.984;2022-12-07T05:28:04;3.30;27.90
4308;DHT22;2167;53.448;9.984;2022-12-07T05:30:30;3.30;27.20
4308;DHT22;2167;53.448;9.984;2022-12-07T05:32:55;3.20;26.60
4308;DHT22;2167;53.448;9.984;2022-12-07T05:35:21;3.20;26.30
4308;DHT22;2167;53.448;9.984;2022-12-07T05:37:47;3.10;26.20
4308;DHT22;2167;53.448;9.984;2022-12-07T05:40:13;3.10;26.30
4308;DHT22;2167;53.448;9.984;2022-12-07T05:42:39;3.10;26.20
4308;DHT22;2167;53.448;9.984;2022-12-07T05:45:05;3.10;26.10
4308;DHT22;2167;53.448;9.984;2022-12-07T05:47:31;3.10;26.20
4308;DHT22;2167;53.448;9.984;2022-12-07T05:49:56;3.10;26.50
4308;DHT22;2167;53.448;9.984;2022-12-07T05:52:22;3.00;26.30
4308;DHT22;2167;53.448;9.984;2022-12-07T05:54:47;3.00;26.30
4308;DHT22;2167;53.448;9.984;2022-12-07T05:57:13;3.00;26.60
4308;DHT22;2167;53.448;9.984;2022-12-07T05:59:39;3.00;26.60
4308;DHT22;2167;53.448;9.984;2022-12-07T06:02:07;3.00;26.50
4308;DHT22;2167;53.448;9.984;2022-12-07T06:04:36;3.00;26.50
4308;DHT22;2167;53.448;9.984;2022-12-07T06:07:02;3.00;26.80
4308;DHT22;2167;53.448;9.984;2022-12-07T06:09:28;3.00;26.80
4308;DHT22;2167;53.448;9.984;2022-12-07T06:11:55;2.90;27.30
4308;DHT22;2167;53.448;9.984;2022-12-07T06:14:40;3.00;27.60
4308;DHT22;2167;53.448;9.984;2022-12-07T06:17:06;3.00;27.70
4308;DHT22;2167;53.448;9.984;2022-12-07T06:19:32;3.00;27.70
4308;DHT22;2167;53.448;9.984;2022-12-07T06:21:57;3.00;27.90
4308;DHT22;2167;53.448;9.984;2022-12-07T06:24:23;3.00;27.90
4308;DHT22;2167;53.448;9.984;2022-12-07T06:26:49;2.90;28.00
4308;DHT22;2167;53.448;9.984;2022-12-07T06:29:15;2.90;28.40
4308;DHT22;2167;53.448;9.984;2022-12-07T06:31:41;3.00;28.40
4308;DHT22;2167;53.448;9.984;2022-12-07T06:34:10;3.10;28.20
4308;DHT22;2167;53.448;9.984;2022-12-07T06:36:36;3.00;28.10
4308;DHT22;2167;53.448;9.984;2022-12-07T06:39:05;3.10;28.20
4308;DHT22;2167;53.448;9.984;2022-12-07T06:41:31;3.00;28.20
4308;DHT22;2167;53.448;9.984;2022-12-07T06:43:57;3.00;28.30
4308;DHT22;2167;53.448;9.984;2022-12-07T06:46:23;3.00;28.60
4308;DHT22;2167;53.448;9.984;2022-12-07T06:48:49;3.00;28.70
4308;DHT22;2167;53.448;9.984;2022-12-07T06:51:15;3.00;28.90
4308;DHT22;2167;53.448;9.984;2022-12-07T06:53:40;3.00;29.30
4308;DHT22;2167;53.448;9.984;2022-12-07T06:56:06;3.00;29.40
4308;DHT22;2167;53.448;9.984;2022-12-07T06:58:32;3.00;29.60
4308;DHT22;2167;53.448;9.984;2022-12-07T07:00:57;3.00;29.70
4308;DHT22;2167;53.448;9.984;2022-12-07T07:03:23;3.00;29.70
4308;DHT22;2167;53.448;9.984;2022-12-07T07:05:48;2.90;30.00
4308;DHT22;2167;53.448;9.984;2022-12-07T07:08:14;3.00;30.20
4308;DHT22;2167;53.448;9.984;2022-12-07T07:10:40;3.00;30.30
4308;DHT22;2167;53.448;9.984;2022-12-07T07:13:06;3.00;30.30
4308;DHT22;2167;53.448;9.984;2022-12-07T07:15:32;3.00;30.40
4308;DHT22;2167;53.448;9.984;2022-12-07T07:17:58;3.10;30.40
4308;DHT22;2167;53.448;9.984;2022-12-07T07:20:24;3.10;30.20
4308;DHT22;2167;53.448;9.984;2022-12-07T07:22:54;3.10;30.00
4308;DHT22;2167;53.448;9.984;2022-12-07T07:25:19;3.10;30.00
4308;DHT22;2167;53.448;9.984;2022-12-07T07:27:45;3.10;29.90
4308;DHT22;2167;53.448;9.984;2022-12-07T07:30:10;3.10;30.00
4308;DHT22;2167;53.448;9.984;2022-12-07T07:32:36;3.10;30.00
4308;DHT22;2167;53.448;9.984;2022-12-07T07:35:02;3.10;30.50
4308;DHT22;2167;53.448;9.984;2022-12-07T07:37:27;3.10;29.90
4308;DHT22;2167;53.448;9.984;2022-12-07T07:39:53;3.20;29.70
4308;DHT22;2167;53.448;9.984;2022-12-07T07:42:19;3.20;29.70
4308;DHT22;2167;53.448;9.984;2022-12-07T07:44:44;3.20;29.50
4308;DHT22;2167;53.448;9.984;2022-12-07T07:47:10;3.20;29.70
4308;DHT22;2167;53.448;9.984;2022-12-07T07:49:36;3.30;29.70
4308;DHT22;2167;53.448;9.984;2022-12-07T07:52:01;3.30;29.50
4308;DHT22;2167;53.448;9.984;2022-12-07T07:54:27;3.30;29.20
4308;DHT22;2167;53.448;9.984;2022-12-07T07:56:52;3.30;29.20
4308;DHT22;2167;53.448;9.984;2022-12-07T07:59:18;3.30;29.10
4308;DHT22;2167;53.448;9.984;2022-12-07T08:01:45;3.30;29.20
4308;DHT22;2167;53.448;9.984;2022-12-07T08:04:10;3.30;29.60
4308;DHT22;2167;53.448;9.984;2022-12-07T08:06:36;3.30;29.30
4308;DHT22;2167;53.448;9.984;2022-12-07T08:09:02;3.30;29.40
4308;DHT22;2167;53.448;9.984;2022-12-07T08:11:28;3.30;29.60
4308;DHT22;2167;53.448;9.984;2022-12-07T08:13:54;3.30;29.70
4308;DHT22;2167;53.448;9.984;2022-12-07T08:16:20;3.30;29.80
4308;DHT22;2167;53.448;9.984;2022-12-07T08:18:45;3.40;30.00
4308;DHT22;2167;53.448;9.984;2022-12-07T08:21:13;3.40;29.90
4308;DHT22;2167;53.448;9.984;2022-12-07T08:23:39;3.40;29.90
4308;DHT22;2167;53.448;9.984;2022-12-07T08:26:11;3.40;29.90
4308;DHT22;2167;53.448;9.984;2022-12-07T08:28:37;3.40;29.80
4308;DHT22;2167;53.448;9.984;2022-12-07T08:31:08;3.40;29.90
4308;DHT22;2167;53.448;9.984;2022-12-07T08:33:34;3.40;30.10
4308;DHT22;2167;53.448;9.984;2022-12-07T08:36:01;3.40;30.10
4308;DHT22;2167;53.448;9.984;2022-12-07T08:38:27;3.50;30.40
4308;DHT22;2167;53.448;9.984;2022-12-07T08:40:54;3.50;30.30
4308;DHT22;2167;53.448;9.984;2022-12-07T08:43:21;3.60;30.40
4308;DHT22;2167;53.448;9.984;2022-12-07T08:45:48;3.50;30.40
4308;DHT22;2167;53.448;9.984;2022-12-07T08:48:15;3.60;30.60
4308;DHT22;2167;53.448;9.984;2022-12-07T08:50:43;3.60;30.40
4308;DHT22;2167;53.448;9.984;2022-12-07T08:53:10;3.70;30.60
4308;DHT22;2167;53.448;9.984;2022-12-07T08:55:36;3.70;30.40
4308;DHT22;2167;53.448;9.984;2022-12-07T08:58:04;3.70;30.30
4308;DHT22;2167;53.448;9.984;2022-12-07T09:00:29;3.80;30.30
4308;DHT22;2167;53.448;9.984;2022-12-07T09:02:55;3.80;30.20
4308;DHT22;2167;53.448;9.984;2022-12-07T09:05:21;3.80;30.20
4308;DHT22;2167;53.448;9.984;2022-12-07T09:07:51;3.90;30.20
4308;DHT22;2167;53.448;9.984;2022-12-07T09:10:18;3.90;30.20
4308;DHT22;2167;53.448;9.984;2022-12-07T09:12:44;4.00;30.10
4308;DHT22;2167;53.448;9.984;2022-12-07T09:15:09;4.00;29.90
4308;DHT22;2167;53.448;9.984;2022-12-07T09:17:35;4.00;30.00
4308;DHT22;2167;53.448;9.984;2022-12-07T09:20:02;4.00;29.80
4308;DHT22;2167;53.448;9.984;2022-12-07T09:22:29;4.00;29.80
4308;DHT22;2167;53.448;9.984;2022-12-07T09:24:56;4.00;29.90
4308;DHT22;2167;53.448;9.984;2022-12-07T09:27:22;4.10;30.20
4308;DHT22;2167;53.448;9.984;2022-12-07T09:29:47;4.20;30.00
4308;DHT22;2167;53.448;9.984;2022-12-07T09:32:13;4.10;29.80
4308;DHT22;2167;53.448;9.984;2022-12-07T09:34:38;4.20;30.10
4308;DHT22;2167;53.448;9.984;2022-12-07T09:37:04;4.20;29.50
4308;DHT22;2167;53.448;9.984;2022-12-07T09:39:30;4.20;29.70
4308;DHT22;2167;53.448;9.984;2022-12-07T09:41:57;4.20;29.90
4308;DHT22;2167;53.448;9.984;2022-12-07T09:44:25;4.30;29.90
4308;DHT22;2167;53.448;9.984;2022-12-07T09:46:51;4.30;30.00
4308;DHT22;2167;53.448;9.984;2022-12-07T09:49:21;4.40;29.90
4308;DHT22;2167;53.448;9.984;2022-12-07T09:51:48;4.40;29.40
4308;DHT22;2167;53.448;9.984;2022-12-07T09:54:24;4.40;29.10
4308;DHT22;2167;53.448;9.984;2022-12-07T09:56:49;4.50;29.40
4308;DHT22;2167;53.448;9.984;2022-12-07T09:59:18;4.50;28.60
4308;DHT22;2167;53.448;9.984;2022-12-07T10:01:48;4.50;28.50
4308;DHT22;2167;53.448;9.984;2022-12-07T10:04:25;4.50;28.50
4308;DHT22;2167;53.448;9.984;2022-12-07T10:06:51;4.60;28.00
4308;DHT22;2167;53.448;9.984;2022-12-07T10:09:19;4.60;27.40
4308;DHT22;2167;53.448;9.984;2022-12-07T10:14:31;4.60;26.30
4308;DHT22;2167;53.448;9.984;2022-12-07T10:16:57;4.60;26.10
4308;DHT22;2167;53.448;9.984;2022-12-07T10:19:31;4.60;25.80
4308;DHT22;2167;53.448;9.984;2022-12-07T10:24:27;4.70;24.80
4308;DHT22;2167;53.448;9.984;2022-12-07T10:26:53;4.70;24.40
4308;DHT22;2167;53.448;9.984;2022-12-07T10:29:28;4.70;23.40
4308;DHT22;2167;53.448;9.984;2022-12-07T10:32:28;4.70;23.30
4308;DHT22;2167;53.448;9.984;2022-12-07T10:35:21;4.70;23.20
4308;DHT22;2167;53.448;9.984;2022-12-07T10:37:49;4.70;23.20
4308;DHT22;2167;53.448;9.984;2022-12-07T10:40:32;4.70;23.40
4308;DHT22;2167;53.448;9.984;2022-12-07T10:43:18;4.70;23.90
4308;DHT22;2167;53.448;9.984;2022-12-07T10:48:33;4.70;23.50
4308;DHT22;2167;53.448;9.984;2022-12-07T10:54:12;4.60;22.80
4308;DHT22;2167;53.448;9.984;2022-12-07T10:57:05;4.60;23.40
4308;DHT22;2167;53.448;9.984;2022-12-07T10:59:41;4.60;23.30
4308;DHT22;2167;53.448;9.984;2022-12-07T11:02:32;4.60;23.80
4308;DHT22;2167;53.448;9.984;2022-12-07T11:05:19;4.60;24.10
4308;DHT22;2167;53.448;9.984;2022-12-07T11:13:29;4.60;25.30
4308;DHT22;2167;53.448;9.984;2022-12-07T11:19:47;4.70;25.20
4308;DHT22;2167;53.448;9.984;2022-12-07T11:21:57;4.70;25.10
4308;DHT22;2167;53.448;9.984;2022-12-07T11:24:49;4.60;25.00
4308;DHT22;2167;53.448;9.984;2022-12-07T11:27:31;4.60;24.70
4308;DHT22;2167;53.448;9.984;2022-12-07T11:35:31;4.70;25.80
4308;DHT22;2167;53.448;9.984;2022-12-07T11:38:08;4.70;25.70
4308;DHT22;2167;53.448;9.984;2022-12-07T11:40:36;4.70;25.70
4308;DHT22;2167;53.448;9.984;2022-12-07T11:43:32;4.70;25.40
4308;DHT22;2167;53.448;9.984;2022-12-07T11:46:12;4.80;25.90
4308;DHT22;2167;53.448;9.984;2022-12-07T11:48:47;4.80;26.10
4308;DHT22;2167;53.448;9.984;2022-12-07T11:51:18;4.80;26.30
4308;DHT22;2167;53.448;9.984;2022-12-07T11:53:52;4.90;26.50
4308;DHT22;2167;53.448;9.984;2022-12-07T11:56:21;4.90;25.40
4308;DHT22;2167;53.448;9.984;2022-12-07T11:58:54;4.90;25.10
4308;DHT22;2167;53.448;9.984;2022-12-07T12:06:34;4.90;24.50
4308;DHT22;2167;53.448;9.984;2022-12-07T12:09:10;4.90;24.60
4308;DHT22;2167;53.448;9.984;2022-12-07T12:17:32;4.90;22.70
4308;DHT22;2167;53.448;9.984;2022-12-07T12:22:43;4.80;22.40
4308;DHT22;2167;53.448;9.984;2022-12-07T12:25:21;4.90;23.00
4308;DHT22;2167;53.448;9.984;2022-12-07T12:27:48;4.90;22.60
4308;DHT22;2167;53.448;9.984;2022-12-07T12:30:35;4.90;22.80
4308;DHT22;2167;53.448;9.984;2022-12-07T12:33:04;4.90;23.30
4308;DHT22;2167;53.448;9.984;2022-12-07T12:35:36;4.90;22.80
4308;DHT22;2167;53.448;9.984;2022-12-07T12:38:27;5.00;23.20
4308;DHT22;2167;53.448;9.984;2022-12-07T12:40:55;4.90;23.70
4308;DHT22;2167;53.448;9.984;2022-12-07T12:51:52;5.10;25.80
4308;DHT22;2167;53.448;9.984;2022-12-07T12:54:27;5.10;25.90
4308;DHT22;2167;53.448;9.984;2022-12-07T12:59:42;5.20;25.90
4308;DHT22;2167;53.448;9.984;2022-12-07T13:05:14;5.30;25.10
4308;DHT22;2167;53.448;9.984;2022-12-07T13:15:42;5.30;23.80
4308;DHT22;2167;53.448;9.984;2022-12-07T13:20:52;5.30;23.90
4308;DHT22;2167;53.448;9.984;2022-12-07T13:23:22;5.30;23.30
4308;DHT22;2167;53.448;9.984;2022-12-07T13:28:38;5.20;21.70
4308;DHT22;2167;53.448;9.984;2022-12-07T13:33:55;5.20;21.20
4308;DHT22;2167;53.448;9.984;2022-12-07T13:36:26;5.10;21.10
4308;DHT22;2167;53.448;9.984;2022-12-07T13:38:57;5.10;20.30
4308;DHT22;2167;53.448;9.984;2022-12-07T13:41:26;5.10;20.00
4308;DHT22;2167;53.448;9.984;2022-12-07T13:44:13;5.00;20.10
4308;DHT22;2167;53.448;9.984;2022-12-07T13:46:44;4.90;20.10
4308;DHT22;2167;53.448;9.984;2022-12-07T13:49:46;4.90;20.30
4308;DHT22;2167;53.448;9.984;2022-12-07T13:55:01;4.80;20.60
4308;DHT22;2167;53.448;9.984;2022-12-07T13:57:35;4.80;20.70
4308;DHT22;2167;53.448;9.984;2022-12-07T14:00:04;4.80;20.50
4308;DHT22;2167;53.448;9.984;2022-12-07T14:02:33;4.80;20.50
4308;DHT22;2167;53.448;9.984;2022-12-07T14:05:14;4.70;20.40
4308;DHT22;2167;53.448;9.984;2022-12-07T14:08:00;4.70;20.80
4308;DHT22;2167;53.448;9.984;2022-12-07T14:13:39;4.70;20.50
4308;DHT22;2167;53.448;9.984;2022-12-07T14:18:50;4.60;20.60
4308;DHT22;2167;53.448;9.984;2022-12-07T14:21:17;4.70;20.50
4308;DHT22;2167;53.448;9.984;2022-12-07T14:23:45;4.60;20.40
4308;DHT22;2167;53.448;9.984;2022-12-07T14:26:20;4.70;20.90
4308;DHT22;2167;53.448;9.984;2022-12-07T14:28:47;4.70;21.10
4308;DHT22;2167;53.448;9.984;2022-12-07T14:31:18;4.60;21.10
4308;DHT22;2167;53.448;9.984;2022-12-07T14:33:45;4.70;21.30
4308;DHT22;2167;53.448;9.984;2022-12-07T14:36:14;4.70;21.70
4308;DHT22;2167;53.448;9.984;2022-12-07T14:38:40;4.80;20.90
4308;DHT22;2167;53.448;9.984;2022-12-07T14:41:21;4.80;19.90
4308;DHT22;2167;53.448;9.984;2022-12-07T14:44:12;4.70;19.90
4308;DHT22;2167;53.448;9.984;2022-12-07T14:46:38;4.70;19.90
4308;DHT22;2167;53.448;9.984;2022-12-07T14:49:03;4.60;20.10
4308;DHT22;2167;53.448;9.984;2022-12-07T14:51:29;4.60;20.40
4308;DHT22;2167;53.448;9.984;2022-12-07T14:53:55;4.60;20.10
4308;DHT22;2167;53.448;9.984;2022-12-07T14:56:20;4.60;19.80
4308;DHT22;2167;53.448;9.984;2022-12-07T14:58:46;4.50;19.50
4308;DHT22;2167;53.448;9.984;2022-12-07T15:01:14;4.50;19.40
4308;DHT22;2167;53.448;9.984;2022-12-07T15:03:39;4.50;18.90
4308;DHT22;2167;53.448;9.984;2022-12-07T15:06:05;4.40;18.50
4308;DHT22;2167;53.448;9.984;2022-12-07T15:08:32;4.30;18.90
4308;DHT22;2167;53.448;9.984;2022-12-07T15:10:57;4.30;19.00
4308;DHT22;2167;53.448;9.984;2022-12-07T15:13:23;4.30;18.70
4308;DHT22;2167;53.448;9.984;2022-12-07T15:16:13;4.10;18.40
4308;DHT22;2167;53.448;9.984;2022-12-07T15:18:41;4.00;18.50
4308;DHT22;2167;53.448;9.984;2022-12-07T15:21:13;4.00;18.80
4308;DHT22;2167;53.448;9.984;2022-12-07T15:23:39;3.90;19.00
4308;DHT22;2167;53.448;9.984;2022-12-07T15:26:07;3.90;19.20
4308;DHT22;2167;53.448;9.984;2022-12-07T15:28:34;3.80;19.20
4308;DHT22;2167;53.448;9.984;2022-12-07T15:31:00;3.80;19.40
4308;DHT22;2167;53.448;9.984;2022-12-07T15:33:25;3.70;19.90
4308;DHT22;2167;53.448;9.984;2022-12-07T15:35:51;3.60;20.60
4308;DHT22;2167;53.448;9.984;2022-12-07T15:38:16;3.60;20.70
4308;DHT22;2167;53.448;9.984;2022-12-07T15:40:42;3.60;20.90
4308;DHT22;2167;53.448;9.984;2022-12-07T15:43:09;3.50;21.20
4308;DHT22;2167;53.448;9.984;2022-12-07T15:45:55;3.40;21.50
4308;DHT22;2167;53.448;9.984;2022-12-07T15:48:20;3.50;21.80
4308;DHT22;2167;53.448;9.984;2022-12-07T15:50:46;3.50;21.20
4308;DHT22;2167;53.448;9.984;2022-12-07T15:53:11;3.40;20.90
4308;DHT22;2167;53.448;9.984;2022-12-07T15:55:39;3.40;20.00
4308;DHT22;2167;53.448;9.984;2022-12-07T15:58:05;3.40;19.20
4308;DHT22;2167;53.448;9.984;2022-12-07T16:00:31;3.30;18.80
4308;DHT22;2167;53.448;9.984;2022-12-07T16:02:56;3.20;19.00
4308;DHT22;2167;53.448;9.984;2022-12-07T16:05:22;3.20;19.40
4308;DHT22;2167;53.448;9.984;2022-12-07T16:07:47;3.10;20.30
4308;DHT22;2167;53.448;9.984;2022-12-07T16:10:13;3.10;21.10
4308;DHT22;2167;53.448;9.984;2022-12-07T16:12:39;3.10;21.40
4308;DHT22;2167;53.448;9.984;2022-12-07T16:15:05;3.10;21.70
4308;DHT22;2167;53.448;9.984;2022-12-07T16:17:31;3.00;21.70
4308;DHT22;2167;53.448;9.984;2022-12-07T16:19:57;3.10;21.70
4308;DHT22;2167;53.448;9.984;2022-12-07T16:22:23;3.00;21.40
4308;DHT22;2167;53.448;9.984;2022-12-07T16:24:49;3.00;21.00
4308;DHT22;2167;53.448;9.984;2022-12-07T16:27:14;3.00;21.00
4308;DHT22;2167;53.448;9.984;2022-12-07T16:29:40;3.00;20.60
4308;DHT22;2167;53.448;9.984;2022-12-07T16:32:05;2.90;19.60
4308;DHT22;2167;53.448;9.984;2022-12-07T16:34:31;2.80;18.90
4308;DHT22;2167;53.448;9.984;2022-12-07T16:36:57;2.80;18.80
4308;DHT22;2167;53.448;9.984;2022-12-07T16:39:23;2.80;18.90
4308;DHT22;2167;53.448;9.984;2022-12-07T16:41:49;2.70;18.70
4308;DHT22;2167;53.448;9.984;2022-12-07T16:44:15;2.60;18.90
4308;DHT22;2167;53.448;9.984;2022-12-07T16:46:41;2.60;19.30
4308;DHT22;2167;53.448;9.984;2022-12-07T16:49:11;2.60;19.70
4308;DHT22;2167;53.448;9.984;2022-12-07T16:51:37;2.50;20.10
4308;DHT22;2167;53.448;9.984;2022-12-07T16:54:03;2.50;20.40
4308;DHT22;2167;53.448;9.984;2022-12-07T16:56:29;2.50;20.20
4308;DHT22;2167;53.448;9.984;2022-12-07T16:58:54;2.40;18.80
4308;DHT22;2167;53.448;9.984;2022-12-07T17:01:22;2.40;19.00
4308;DHT22;2167;53.448;9.984;2022-12-07T17:03:53;2.30;19.90
4308;DHT22;2167;53.448;9.984;2022-12-07T17:06:23;2.30;20.50
4308;DHT22;2167;53.448;9.984;2022-12-07T17:08:50;2.40;21.10
4308;DHT22;2167;53.448;9.984;2022-12-07T17:11:27;2.40;20.70
4308;DHT22;2167;53.448;9.984;2022-12-07T17:13:53;2.30;20.40
4308;DHT22;2167;53.448;9.984;2022-12-07T17:16:38;2.30;20.30
4308;DHT22;2167;53.448;9.984;2022-12-07T17:19:05;2.20;19.90
4308;DHT22;2167;53.448;9.984;2022-12-07T17:21:31;2.20;20.30
4308;DHT22;2167;53.448;9.984;2022-12-07T17:23:58;2.20;19.80
4308;DHT22;2167;53.448;9.984;2022-12-07T17:26:25;2.10;19.90
4308;DHT22;2167;53.448;9.984;2022-12-07T17:28:51;2.10;20.10
4308;DHT22;2167;53.448;9.984;2022-12-07T17:31:19;2.00;20.50
4308;DHT22;2167;53.448;9.984;2022-12-07T17:33:45;2.10;21.30
4308;DHT22;2167;53.448;9.984;2022-12-07T17:36:27;2.10;21.60
4308;DHT22;2167;53.448;9.984;2022-12-07T17:38:53;2.00;21.80
4308;DHT22;2167;53.448;9.984;2022-12-07T17:41:24;2.00;22.20
4308;DHT22;2167;53.448;9.984;2022-12-07T17:44:17;2.00;22.80
4308;DHT22;2167;53.448;9.984;2022-12-07T17:46:44;2.00;23.30
4308;DHT22;2167;53.448;9.984;2022-12-07T17:49:10;2.00;23.50
4308;DHT22;2167;53.448;9.984;2022-12-07T17:51:36;2.00;23.80
4308;DHT22;2167;53.448;9.984;2022-12-07T17:54:21;2.00;24.30
4308;DHT22;2167;53.448;9.984;2022-12-07T17:56:47;2.10;24.80
4308;DHT22;2167;53.448;9.984;2022-12-07T17:59:14;2.10;24.90
4308;DHT22;2167;53.448;9.984;2022-12-07T18:01:40;2.10;25.80
4308;DHT22;2167;53.448;9.984;2022-12-07T18:04:06;2.20;25.60
4308;DHT22;2167;53.448;9.984;2022-12-07T18:06:32;2.20;25.30
4308;DHT22;2167;53.448;9.984;2022-12-07T18:08:58;2.20;24.50
4308;DHT22;2167;53.448;9.984;2022-12-07T18:11:24;2.20;23.60
4308;DHT22;2167;53.448;9.984;2022-12-07T18:13:51;2.10;22.80
4308;DHT22;2167;53.448;9.984;2022-12-07T18:16:19;2.00;22.40